createdAt,value
2018-05-31T00:02:19.227Z,5.07
2018-05-31T00:04:47.980Z,4.47
2018-05-31T00:07:16.802Z,5.37
2018-05-31T00:09:45.590Z,5.37
2018-05-31T00:12:14.408Z,5.03
2018-05-31T00:14:43.168Z,5.07
2018-05-31T00:17:11.953Z,4.93
2018-05-31T00:19:40.710Z,5.20
2018-05-31T00:22:09.527Z,6.60
2018-05-31T00:24:38.206Z,5.43
2018-05-31T00:27:07.064Z,7.30
2018-05-31T00:29:35.787Z,5.70
2018-05-31T00:32:04.578Z,5.97
2018-05-31T00:34:33.257Z,5.10
2018-05-31T00:37:02.152Z,5.70
2018-05-31T00:39:30.963Z,5.27
2018-05-31T00:41:59.828Z,6.07
2018-05-31T00:44:28.500Z,5.57
2018-05-31T00:46:57.204Z,5.67
2018-05-31T00:49:26.085Z,4.80
2018-05-31T00:51:54.875Z,5.90
2018-05-31T00:54:23.717Z,6.30
2018-05-31T00:56:52.560Z,6.23
2018-05-31T00:59:21.341Z,5.77
2018-05-31T01:01:50.125Z,5.93
2018-05-31T01:04:18.809Z,6.33
2018-05-31T01:06:47.562Z,5.93
2018-05-31T01:09:16.186Z,5.70
2018-05-31T01:11:44.968Z,6.00
2018-05-31T01:14:13.758Z,5.37
2018-05-31T01:16:42.543Z,5.60
2018-05-31T01:19:11.183Z,6.00
2018-05-31T01:21:39.817Z,5.57
2018-05-31T01:24:09.324Z,4.63
2018-05-31T01:26:38.208Z,5.10
2018-05-31T01:29:06.991Z,5.53
2018-05-31T01:31:35.677Z,5.70
2018-05-31T01:34:04.465Z,5.27
2018-05-31T01:36:33.253Z,5.00
2018-05-31T01:39:01.922Z,5.33
2018-05-31T01:41:30.839Z,5.30
2018-05-31T01:43:59.562Z,5.33
2018-05-31T01:46:28.297Z,4.80
2018-05-31T01:48:57.086Z,4.87
2018-05-31T01:51:25.879Z,5.30
2018-05-31T01:53:54.552Z,5.00
2018-05-31T01:56:23.141Z,5.13
2018-05-31T01:58:51.832Z,5.50
2018-05-31T02:01:20.615Z,4.93
2018-05-31T02:03:50.021Z,5.17
2018-05-31T02:06:18.805Z,5.00
2018-05-31T02:08:47.493Z,5.77
2018-05-31T02:11:16.277Z,6.23
2018-05-31T02:13:45.141Z,5.40
2018-05-31T02:16:13.953Z,5.77
2018-05-31T02:18:42.740Z,5.20
2018-05-31T02:21:11.492Z,5.43
2018-05-31T02:23:40.215Z,5.67
2018-05-31T02:26:08.874Z,5.87
2018-05-31T02:28:37.584Z,5.63
2018-05-31T02:31:06.371Z,5.63
2018-05-31T02:33:35.158Z,5.80
2018-05-31T02:36:03.948Z,5.00
2018-05-31T02:38:32.633Z,5.23
2018-05-31T02:41:01.309Z,5.43
2018-05-31T02:43:30.001Z,5.53
2018-05-31T02:45:58.858Z,5.67
2018-05-31T02:48:27.627Z,5.90
2018-05-31T02:50:56.482Z,5.10
2018-05-31T02:53:25.354Z,5.50
2018-05-31T02:55:54.034Z,5.50
2018-05-31T02:58:22.730Z,6.20
2018-05-31T03:00:51.616Z,5.80
2018-05-31T03:03:20.302Z,5.67
2018-05-31T03:05:49.087Z,5.10
2018-05-31T03:08:17.874Z,5.57
2018-05-31T03:10:46.662Z,5.87
2018-05-31T03:13:15.348Z,6.40
2018-05-31T03:15:44.113Z,6.47
2018-05-31T03:18:12.819Z,5.30
2018-05-31T03:20:41.607Z,5.40
2018-05-31T03:23:10.303Z,5.33
2018-05-31T03:25:39.079Z,5.63
2018-05-31T03:28:07.765Z,5.50
2018-05-31T03:30:36.451Z,5.07
2018-05-31T03:33:05.135Z,4.63
2018-05-31T03:35:33.872Z,5.23
2018-05-31T03:38:02.714Z,5.60
2018-05-31T03:40:31.396Z,5.47
2018-05-31T03:43:00.292Z,4.67
2018-05-31T03:45:29.072Z,5.23
2018-05-31T03:47:57.774Z,4.83
2018-05-31T03:50:26.550Z,5.50
2018-05-31T03:52:55.173Z,4.23
2018-05-31T03:55:23.813Z,4.57
2018-05-31T03:57:52.598Z,5.40
2018-05-31T04:00:21.288Z,5.43
2018-05-31T04:02:50.077Z,5.37
2018-05-31T04:05:18.963Z,4.60
2018-05-31T04:07:47.786Z,5.13
2018-05-31T04:10:16.542Z,5.20
2018-05-31T04:12:45.225Z,3.83
2018-05-31T04:15:14.068Z,5.00
2018-05-31T04:17:42.761Z,4.80
2018-05-31T04:20:11.482Z,6.37
2018-05-31T04:22:40.274Z,4.70
2018-05-31T04:25:09.159Z,5.10
2018-05-31T04:27:37.845Z,5.00
2018-05-31T04:30:06.631Z,5.40
2018-05-31T04:32:35.534Z,4.83
2018-05-31T04:35:04.308Z,6.10
2018-05-31T04:37:32.993Z,7.00
2018-05-31T04:40:01.679Z,5.60
2018-05-31T04:42:31.088Z,5.03
2018-05-31T04:44:59.760Z,4.40
2018-05-31T04:47:28.691Z,5.37
2018-05-31T04:49:58.027Z,4.43
2018-05-31T04:52:26.595Z,5.57
2018-05-31T04:54:55.633Z,4.47
2018-05-31T04:57:24.419Z,4.10
2018-05-31T04:59:53.102Z,3.87
2018-05-31T05:02:21.789Z,3.90
2018-05-31T05:04:50.535Z,5.30
2018-05-31T05:07:19.845Z,8.10
2018-05-31T05:09:48.564Z,6.37
2018-05-31T05:12:17.370Z,4.77
2018-05-31T05:14:45.942Z,5.17
2018-05-31T05:17:14.721Z,5.00
2018-05-31T05:19:43.505Z,5.97
2018-05-31T05:22:12.746Z,7.60
2018-05-31T05:24:41.592Z,6.70
2018-05-31T05:27:10.483Z,5.30
2018-05-31T05:29:39.269Z,5.33
2018-05-31T05:32:08.058Z,5.40
2018-05-31T05:34:36.961Z,5.97
2018-05-31T05:37:05.627Z,5.80
2018-05-31T05:39:34.420Z,6.70
2018-05-31T05:42:03.209Z,7.30
2018-05-31T05:44:31.998Z,5.60
2018-05-31T05:47:00.681Z,5.20
2018-05-31T05:49:29.468Z,5.43
2018-05-31T05:51:58.154Z,5.53
2018-05-31T05:54:26.945Z,4.90
2018-05-31T05:56:55.618Z,6.20
2018-05-31T05:59:24.412Z,6.30
2018-05-31T06:01:53.129Z,5.57
2018-05-31T06:04:21.752Z,5.50
2018-05-31T06:06:50.425Z,5.40
2018-05-31T06:09:19.178Z,7.53
2018-05-31T06:11:47.941Z,7.63
2018-05-31T06:14:16.626Z,7.40
2018-05-31T06:16:45.458Z,4.97
2018-05-31T06:19:14.250Z,5.37
2018-05-31T06:21:42.990Z,4.57
2018-05-31T06:24:11.673Z,5.73
2018-05-31T06:26:40.458Z,8.57
2018-05-31T06:29:09.352Z,4.77
2018-05-31T06:31:38.238Z,8.27
2018-05-31T06:34:06.936Z,5.20
2018-05-31T06:36:35.613Z,8.87
2018-05-31T06:39:04.399Z,6.50
2018-05-31T06:41:33.087Z,5.90
2018-05-31T06:44:01.742Z,6.70
2018-05-31T06:46:30.453Z,6.53
2018-05-31T06:48:59.135Z,6.20
2018-05-31T06:51:28.032Z,5.37
2018-05-31T06:53:56.788Z,5.90
2018-05-31T06:56:25.509Z,7.30
2018-05-31T06:58:54.287Z,5.87
2018-05-31T07:01:23.075Z,5.90
2018-05-31T07:03:51.971Z,6.30
2018-05-31T07:06:20.857Z,6.30
2018-05-31T07:08:49.540Z,5.37
2018-05-31T07:11:18.279Z,5.17
2018-05-31T07:13:47.113Z,6.43
2018-05-31T07:16:16.036Z,5.93
2018-05-31T07:18:44.898Z,5.80
2018-05-31T07:21:13.580Z,5.53
2018-05-31T07:23:42.266Z,5.37
2018-05-31T07:26:11.226Z,5.60
2018-05-31T07:28:39.947Z,5.13
2018-05-31T07:31:08.726Z,7.23
2018-05-31T07:33:37.519Z,7.77
2018-05-31T07:36:06.679Z,6.63
2018-05-31T07:38:35.616Z,7.10
2018-05-31T07:41:04.577Z,5.53
2018-05-31T07:43:33.380Z,5.27
2018-05-31T07:46:02.065Z,5.23
2018-05-31T07:48:30.863Z,5.57
2018-05-31T07:50:59.744Z,4.53
2018-05-31T07:53:28.495Z,5.23
2018-05-31T07:55:57.190Z,4.70
2018-05-31T07:58:25.915Z,5.40
2018-05-31T08:00:54.598Z,4.50
2018-05-31T08:03:23.375Z,4.40
2018-05-31T08:05:52.074Z,4.30
2018-05-31T08:08:20.128Z,5.30
2018-05-31T08:10:48.609Z,6.07
2018-05-31T08:13:17.356Z,5.30
2018-05-31T08:15:46.184Z,4.23
2018-05-31T08:18:14.874Z,3.83
2018-05-31T08:20:43.673Z,4.37
2018-05-31T08:23:12.355Z,5.03
2018-05-31T08:25:40.939Z,4.13
2018-05-31T08:28:09.863Z,5.83
2018-05-31T08:30:38.877Z,3.83
2018-05-31T08:33:07.593Z,4.30
2018-05-31T08:35:36.588Z,4.57
2018-05-31T08:38:05.270Z,3.47
2018-05-31T08:40:34.468Z,4.67
2018-05-31T08:43:03.348Z,3.80
2018-05-31T08:45:32.146Z,4.47
2018-05-31T08:48:00.898Z,4.43
2018-05-31T08:50:29.822Z,4.50
2018-05-31T08:52:58.718Z,3.73
2018-05-31T08:55:27.641Z,4.10
2018-05-31T08:57:56.596Z,4.87
2018-05-31T09:00:25.997Z,4.20
2018-05-31T09:02:54.989Z,4.10
2018-05-31T09:05:24.085Z,3.57
2018-05-31T09:07:52.776Z,3.53
2018-05-31T09:10:21.651Z,4.20
2018-05-31T09:12:50.639Z,3.90
2018-05-31T09:15:19.553Z,3.60
2018-05-31T09:17:48.332Z,3.70
2018-05-31T09:20:17.593Z,3.80
2018-05-31T09:22:46.618Z,3.23
2018-05-31T09:25:15.409Z,3.70
2018-05-31T09:27:44.367Z,3.97
2018-05-31T09:30:13.185Z,3.70
2018-05-31T09:32:41.926Z,3.60
2018-05-31T09:35:10.762Z,3.40
2018-05-31T09:37:39.512Z,3.47
2018-05-31T09:40:08.179Z,4.80
2018-05-31T09:42:37.025Z,3.90
2018-05-31T09:45:06.218Z,3.53
2018-05-31T09:47:35.299Z,3.83
2018-05-31T09:50:04.315Z,3.80
2018-05-31T09:52:33.390Z,3.80
2018-05-31T09:55:02.131Z,4.10
2018-05-31T09:57:30.877Z,3.50
2018-05-31T09:59:59.659Z,4.17
2018-05-31T10:02:28.552Z,4.30
2018-05-31T10:04:58.465Z,4.20
2018-05-31T10:07:27.309Z,3.80
2018-05-31T10:09:56.027Z,4.00
2018-05-31T10:12:24.927Z,3.87
2018-05-31T10:14:53.610Z,3.97
2018-05-31T10:17:22.358Z,3.97
2018-05-31T10:19:51.191Z,4.03
2018-05-31T10:22:20.014Z,3.93
2018-05-31T10:24:50.760Z,3.70
2018-05-31T10:27:19.597Z,4.17
2018-05-31T10:29:48.387Z,4.33
2018-05-31T10:32:17.481Z,3.57
2018-05-31T10:34:46.947Z,4.30
2018-05-31T10:37:15.883Z,3.70
2018-05-31T10:39:44.669Z,3.70
2018-05-31T10:42:14.374Z,3.30
2018-05-31T10:44:43.464Z,3.40
2018-05-31T10:47:12.145Z,3.83
2018-05-31T10:49:41.247Z,3.77
2018-05-31T10:52:10.339Z,3.90
2018-05-31T10:54:39.127Z,3.90
2018-05-31T10:57:08.022Z,6.77
2018-05-31T10:59:36.862Z,4.60
2018-05-31T11:02:05.586Z,3.67
2018-05-31T11:04:34.485Z,3.40
2018-05-31T11:07:03.366Z,3.83
2018-05-31T11:09:31.966Z,3.60
2018-05-31T11:12:00.740Z,3.53
2018-05-31T11:14:29.480Z,3.20
2018-05-31T11:16:58.110Z,4.00
2018-05-31T11:19:27.106Z,3.60
2018-05-31T11:21:55.892Z,3.97
2018-05-31T11:24:24.577Z,3.97
2018-05-31T11:26:53.585Z,3.97
2018-05-31T11:29:22.561Z,5.47
2018-05-31T11:31:51.428Z,3.83
2018-05-31T11:34:20.957Z,3.80
2018-05-31T11:36:49.744Z,4.00
2018-05-31T11:39:19.824Z,3.30
2018-05-31T11:41:48.754Z,3.20
2018-05-31T11:44:18.461Z,4.60
2018-05-31T11:46:47.821Z,4.50
2018-05-31T11:49:16.752Z,5.33
2018-05-31T11:51:45.742Z,4.37
2018-05-31T11:54:14.447Z,4.90
2018-05-31T11:56:43.939Z,3.53
2018-05-31T11:59:12.831Z,3.40
2018-05-31T12:01:41.522Z,3.73
2018-05-31T12:04:10.562Z,3.60
2018-05-31T12:06:39.383Z,3.90
2018-05-31T12:09:09.204Z,3.67
2018-05-31T12:11:38.090Z,3.80
2018-05-31T12:14:07.159Z,3.70
2018-05-31T12:16:36.695Z,3.23
2018-05-31T12:19:06.420Z,3.60
2018-05-31T12:21:35.463Z,3.47
2018-05-31T12:24:04.490Z,3.80
2018-05-31T12:26:33.271Z,4.30
2018-05-31T12:29:02.577Z,3.70
2018-05-31T12:31:31.574Z,4.53
2018-05-31T12:34:00.456Z,3.43
2018-05-31T12:36:29.139Z,2.80
2018-05-31T12:38:58.021Z,3.57
2018-05-31T12:41:26.977Z,3.23
2018-05-31T12:43:55.912Z,3.57
2018-05-31T12:46:24.794Z,3.03
2018-05-31T12:48:53.995Z,3.30
2018-05-31T12:51:22.693Z,3.63
2018-05-31T12:53:51.879Z,3.30
2018-05-31T12:56:20.884Z,3.43
2018-05-31T12:58:50.788Z,3.60
2018-05-31T13:01:19.677Z,2.93
2018-05-31T13:03:48.578Z,3.60
2018-05-31T13:06:17.559Z,3.27
2018-05-31T13:08:46.511Z,2.93
2018-05-31T13:11:15.446Z,2.93
2018-05-31T13:13:44.434Z,2.63
2018-05-31T13:16:13.120Z,4.00
2018-05-31T13:18:42.006Z,3.70
2018-05-31T13:21:10.797Z,2.70
2018-05-31T13:23:40.383Z,2.87
2018-05-31T13:26:09.290Z,4.30
2018-05-31T13:28:38.187Z,2.97
2018-05-31T13:31:07.067Z,3.60
2018-05-31T13:33:35.963Z,2.47
2018-05-31T13:36:05.667Z,2.70
2018-05-31T13:38:34.559Z,3.50
2018-05-31T13:41:03.345Z,2.83
2018-05-31T13:43:32.337Z,2.70
2018-05-31T13:46:01.538Z,2.47
2018-05-31T13:48:30.426Z,2.47
2018-05-31T13:51:00.229Z,2.33
2018-05-31T13:53:29.393Z,3.23
2018-05-31T13:55:58.225Z,2.33
2018-05-31T13:58:27.112Z,2.50
2018-05-31T14:00:57.035Z,2.70
2018-05-31T14:03:25.961Z,2.83
2018-05-31T14:05:55.180Z,3.50
2018-05-31T14:08:25.025Z,2.47
2018-05-31T14:10:53.989Z,2.07
2018-05-31T14:13:22.778Z,2.33
2018-05-31T14:15:51.748Z,1.93
2018-05-31T14:18:20.790Z,2.60
2018-05-31T14:20:49.705Z,2.40
2018-05-31T14:23:18.575Z,2.70
2018-05-31T14:25:47.356Z,2.00
2018-05-31T14:28:16.861Z,3.17
2018-05-31T14:30:45.545Z,2.97
2018-05-31T14:33:15.154Z,1.77
2018-05-31T14:35:43.941Z,1.63
2018-05-31T14:38:12.823Z,1.73
2018-05-31T14:40:41.794Z,1.70
2018-05-31T14:43:11.034Z,1.80
2018-05-31T14:45:39.908Z,2.00
2018-05-31T14:48:08.698Z,1.90
2018-05-31T14:50:37.790Z,2.13
2018-05-31T14:53:07.499Z,1.90
2018-05-31T14:55:36.391Z,1.87
2018-05-31T14:58:05.174Z,2.10
2018-05-31T15:00:33.963Z,2.43
2018-05-31T15:03:03.012Z,1.70
2018-05-31T15:05:31.850Z,1.90
2018-05-31T15:08:00.943Z,2.10
2018-05-31T15:10:30.148Z,2.10
2018-05-31T15:12:58.824Z,2.40
2018-05-31T15:15:27.817Z,2.83
2018-05-31T15:17:56.808Z,2.13
2018-05-31T15:20:25.668Z,2.13
2018-05-31T15:22:54.408Z,5.23
2018-05-31T15:25:23.472Z,2.07
2018-05-31T15:27:52.473Z,1.90
2018-05-31T15:30:21.369Z,2.63
2018-05-31T15:32:50.148Z,2.03
2018-05-31T15:35:19.345Z,2.10
2018-05-31T15:37:48.059Z,1.70
2018-05-31T15:40:16.921Z,1.87
2018-05-31T15:42:45.707Z,1.97
2018-05-31T15:45:14.703Z,1.73
2018-05-31T15:47:43.498Z,1.93
2018-05-31T15:50:12.477Z,1.97
2018-05-31T15:52:41.582Z,1.57
2018-05-31T15:55:10.463Z,1.90
2018-05-31T15:57:39.660Z,3.47
2018-05-31T16:00:08.757Z,2.37
2018-05-31T16:02:37.853Z,2.00
2018-05-31T16:05:06.842Z,2.13
2018-05-31T16:07:35.518Z,2.63
2018-05-31T16:10:04.415Z,1.97
2018-05-31T16:12:33.306Z,2.07
2018-05-31T16:15:02.560Z,2.47
2018-05-31T16:17:32.119Z,2.30
2018-05-31T16:20:01.038Z,2.13
2018-05-31T16:22:29.865Z,2.30
2018-05-31T16:24:58.903Z,2.30
2018-05-31T16:27:28.231Z,2.20
2018-05-31T16:29:56.969Z,2.23
2018-05-31T16:32:26.574Z,3.20
2018-05-31T16:34:55.258Z,2.17
2018-05-31T16:37:24.461Z,2.00
2018-05-31T16:39:53.617Z,1.93
2018-05-31T16:42:22.997Z,1.93
2018-05-31T16:44:52.042Z,2.00
2018-05-31T16:47:20.940Z,2.23
2018-05-31T16:49:50.021Z,1.93
2018-05-31T16:52:19.096Z,2.90
2018-05-31T16:54:47.818Z,2.20
2018-05-31T16:57:17.009Z,2.60
2018-05-31T16:59:45.902Z,3.00
2018-05-31T17:02:14.612Z,2.20
2018-05-31T17:04:43.744Z,2.70
2018-05-31T17:07:12.673Z,2.53
2018-05-31T17:09:41.887Z,3.07
2018-05-31T17:12:11.511Z,2.93
2018-05-31T17:14:40.361Z,2.40
2018-05-31T17:17:09.893Z,2.17
2018-05-31T17:19:38.860Z,2.50
2018-05-31T17:22:07.751Z,2.53
2018-05-31T17:24:37.667Z,2.33
2018-05-31T17:27:06.656Z,3.20
2018-05-31T17:29:35.544Z,2.50
2018-05-31T17:32:04.437Z,2.40
2018-05-31T17:34:33.530Z,2.07
2018-05-31T17:37:02.524Z,2.90
2018-05-31T17:39:31.412Z,3.67
2018-05-31T17:42:00.506Z,3.63
2018-05-31T17:44:29.872Z,2.70
2018-05-31T17:46:58.696Z,3.00
2018-05-31T17:49:27.759Z,3.13
2018-05-31T17:51:57.079Z,6.33
2018-05-31T17:54:26.183Z,3.60
2018-05-31T17:56:54.972Z,3.87
2018-05-31T17:59:24.172Z,3.80
2018-05-31T18:01:53.189Z,4.20
2018-05-31T18:04:21.948Z,3.70
2018-05-31T18:06:50.737Z,4.50
2018-05-31T18:09:19.525Z,3.93
2018-05-31T18:11:48.412Z,3.20
2018-05-31T18:14:17.150Z,3.80
2018-05-31T18:16:46.191Z,3.60
2018-05-31T18:19:15.084Z,4.53
2018-05-31T18:21:43.961Z,4.20
2018-05-31T18:24:12.967Z,4.40
2018-05-31T18:26:42.774Z,4.30
2018-05-31T18:29:11.668Z,4.30
2018-05-31T18:31:40.760Z,3.83
2018-05-31T18:34:09.721Z,3.87
2018-05-31T18:36:38.730Z,4.47
2018-05-31T18:39:08.322Z,4.53
2018-05-31T18:41:37.240Z,4.43
2018-05-31T18:44:06.131Z,3.27
2018-05-31T18:46:38.605Z,5.20
2018-05-31T18:49:08.423Z,3.27
2018-05-31T18:51:37.260Z,3.53
2018-05-31T18:54:06.095Z,3.40
2018-05-31T18:56:35.047Z,4.20
2018-05-31T18:59:04.794Z,4.30
2018-05-31T19:01:33.787Z,4.10
2018-05-31T19:04:02.648Z,4.23
2018-05-31T19:06:31.457Z,3.00
2018-05-31T19:09:00.251Z,4.17
2018-05-31T19:11:29.038Z,3.80
2018-05-31T19:13:58.742Z,3.80
2018-05-31T19:16:27.535Z,3.50
2018-05-31T19:19:02.264Z,3.50
2018-05-31T19:21:31.156Z,5.67
2018-05-31T19:24:05.709Z,7.47
2018-05-31T19:26:35.044Z,7.93
2018-05-31T19:29:03.862Z,4.60
2018-05-31T19:31:32.610Z,14.37
2018-05-31T19:34:02.053Z,10.67
2018-05-31T19:36:36.981Z,6.40
2018-05-31T19:39:06.792Z,5.60
2018-05-31T19:41:35.894Z,7.67
2018-05-31T19:44:10.787Z,8.13
2018-05-31T19:46:39.510Z,9.27
2018-05-31T19:49:09.112Z,16.97
2018-05-31T19:51:43.840Z,16.23
2018-05-31T19:54:12.898Z,15.30
2018-05-31T19:56:41.826Z,10.13
2018-05-31T19:59:16.449Z,12.53
2018-05-31T20:01:50.763Z,9.70
2018-05-31T20:04:20.415Z,7.13
2018-05-31T20:06:49.353Z,7.63
2018-05-31T20:09:18.389Z,7.80
2018-05-31T20:11:47.450Z,8.40
2018-05-31T20:14:16.244Z,6.30
2018-05-31T20:16:45.085Z,6.73
2018-05-31T20:19:14.019Z,6.83
2018-05-31T20:21:42.908Z,8.07
2018-05-31T20:24:11.797Z,8.67
2018-05-31T20:26:40.686Z,10.97
2018-05-31T20:29:09.576Z,9.43
2018-05-31T20:31:38.473Z,7.47
2018-05-31T20:34:07.356Z,11.97
2018-05-31T20:36:36.144Z,14.83
2018-05-31T20:39:05.975Z,9.07
2018-05-31T20:41:35.757Z,7.47
2018-05-31T20:44:05.103Z,10.60
2018-05-31T20:46:34.366Z,8.13
2018-05-31T20:49:03.441Z,6.43
2018-05-31T20:51:32.457Z,6.80
2018-05-31T20:54:01.250Z,6.90
2018-05-31T20:56:30.341Z,6.40
2018-05-31T20:58:59.179Z,6.60
2018-05-31T21:01:27.902Z,6.20
2018-05-31T21:03:56.563Z,6.90
2018-05-31T21:06:25.588Z,10.13
2018-05-31T21:08:54.476Z,7.67
2018-05-31T21:11:23.365Z,9.67
2018-05-31T21:13:52.254Z,11.23
2018-05-31T21:16:22.148Z,8.60
2018-05-31T21:18:51.328Z,9.43
2018-05-31T21:21:20.056Z,6.60
2018-05-31T21:23:48.941Z,8.00
2018-05-31T21:26:17.858Z,8.00
2018-05-31T21:28:46.624Z,7.17
2018-05-31T21:31:15.514Z,8.90
2018-05-31T21:33:44.399Z,7.93
2018-05-31T21:36:13.526Z,8.90
2018-05-31T21:38:42.455Z,6.73
2018-05-31T21:41:11.355Z,8.20
2018-05-31T21:43:40.472Z,7.90
2018-05-31T21:46:09.826Z,5.93
2018-05-31T21:48:39.787Z,6.67
2018-05-31T21:51:08.777Z,6.63
2018-05-31T21:53:37.771Z,6.43
2018-05-31T21:56:06.712Z,6.00
2018-05-31T21:58:36.163Z,6.60
2018-05-31T22:01:04.882Z,10.53
2018-05-31T22:03:33.534Z,5.63
2018-05-31T22:06:02.321Z,7.07
2018-05-31T22:08:31.124Z,9.90
2018-05-31T22:11:00.408Z,6.40
2018-05-31T22:13:29.313Z,10.97
2018-05-31T22:15:58.255Z,5.90
2018-05-31T22:18:27.029Z,5.40
2018-05-31T22:20:55.864Z,6.13
2018-05-31T22:23:24.651Z,6.13
2018-05-31T22:25:54.470Z,8.53
2018-05-31T22:28:23.454Z,5.20
2018-05-31T22:30:52.345Z,5.93
2018-05-31T22:33:21.336Z,5.57
2018-05-31T22:35:50.132Z,5.40
2018-05-31T22:38:18.825Z,5.43
2018-05-31T22:40:47.699Z,5.37
2018-05-31T22:43:17.036Z,5.57
2018-05-31T22:45:45.711Z,5.67
2018-05-31T22:48:14.792Z,5.47
2018-05-31T22:50:43.787Z,5.50
2018-05-31T22:53:12.764Z,4.60
2018-05-31T22:55:41.473Z,4.30
2018-05-31T22:58:10.143Z,4.97
2018-05-31T23:00:39.010Z,4.47
2018-05-31T23:03:07.811Z,4.80
2018-05-31T23:05:36.770Z,5.03
2018-05-31T23:08:06.135Z,4.77
2018-05-31T23:10:35.818Z,4.67
2018-05-31T23:13:04.705Z,3.90
2018-05-31T23:15:33.663Z,4.30
2018-05-31T23:18:02.654Z,4.90
2018-05-31T23:20:31.478Z,5.27
2018-05-31T23:23:00.470Z,4.80
2018-05-31T23:25:30.079Z,7.63
2018-05-31T23:27:59.371Z,4.37
2018-05-31T23:30:28.160Z,4.77
2018-05-31T23:32:57.258Z,3.80
2018-05-31T23:35:26.041Z,4.20
2018-05-31T23:37:55.316Z,4.00
2018-05-31T23:40:24.348Z,4.17
2018-05-31T23:42:53.432Z,4.57
2018-05-31T23:45:22.523Z,4.67
2018-05-31T23:47:52.457Z,5.23
2018-05-31T23:50:21.429Z,4.80
2018-05-31T23:52:50.526Z,4.97
2018-05-31T23:55:19.590Z,4.33
2018-05-31T23:57:48.615Z,4.50
